Time;durP1;ratioP1;P1;durP2;ratioP2;P2;SDS_P1;SDS_P2;PMS_P1;PMS_P2;Temp;Humidity;BMP_temperature;BMP_pressure;BME280_temperature;BME280_humidity;BME280_pressure;Samples;Min_cycle;Max_cycle;Signal;HPM_P1;HPM_P2
2022/03/23 00:00:44;;;;;;;37.17;17.37;;;4.40;66.50;;;;;;4174142;28;20262;-56
2022/03/23 00:02:46;;;;;;;38.80;17.63;;;4.30;66.60;;;;;;4188501;28;20297;-52
2022/03/23 00:04:47;;;;;;;34.37;16.43;;;4.30;66.50;;;;;;4190286;28;20699;-56
2022/03/23 00:06:48;;;;;;;40.70;16.47;;;4.20;66.70;;;;;;4189140;28;20307;-57
2022/03/23 00:08:50;;;;;;;34.40;16.03;;;4.20;67.10;;;;;;4189298;28;20723;-56
2022/03/23 00:10:51;;;;;;;34.80;16.77;;;4.00;67.40;;;;;;4187821;28;20852;-56
2022/03/23 00:12:57;;;;;;;34.33;17.20;;;4.00;67.30;;;;;;4190612;28;20266;-53
2022/03/23 00:14:58;;;;;;;36.20;15.90;;;3.90;67.60;;;;;;4189646;28;20319;-57
2022/03/23 00:16:59;;;;;;;39.93;17.03;;;3.80;68.20;;;;;;4189926;28;20757;-57
2022/03/23 00:19:00;;;;;;;35.10;16.57;;;3.80;68.10;;;;;;4189893;28;20265;-58
2022/03/23 00:21:01;;;;;;;38.50;16.20;;;3.80;68.20;;;;;;4189448;28;20270;-56
2022/03/23 00:23:03;;;;;;;33.33;14.37;;;3.70;68.30;;;;;;4190371;28;20270;-58
2022/03/23 00:25:04;;;;;;;28.73;13.47;;;3.70;68.90;;;;;;4188489;28;20323;-54
2022/03/23 00:27:06;;;;;;;26.30;12.67;;;3.70;69.40;;;;;;4189946;28;20310;-57
2022/03/23 00:29:07;;;;;;;23.97;10.97;;;3.70;69.80;;;;;;4188829;28;20343;-55
2022/03/23 00:31:09;;;;;;;29.37;11.23;;;3.70;69.80;;;;;;4180023;28;20681;-58
2022/03/23 00:33:10;;;;;;;25.80;10.80;;;3.80;70.20;;;;;;4172156;28;20312;-56
2022/03/23 00:35:12;;;;;;;23.30;10.10;;;3.80;70.00;;;;;;4173137;28;20270;-58
2022/03/23 00:37:14;;;;;;;20.90;10.00;;;3.80;70.70;;;;;;4173758;28;20289;-57
2022/03/23 00:39:15;;;;;;;30.27;10.10;;;3.80;70.40;;;;;;4173673;28;20262;-57
2022/03/23 00:41:16;;;;;;;26.63;9.60;;;3.80;70.70;;;;;;4172396;28;20676;-57
2022/03/23 00:43:17;;;;;;;18.00;9.30;;;3.90;70.20;;;;;;4173656;28;20370;-54
2022/03/23 00:45:19;;;;;;;18.63;9.07;;;3.90;70.20;;;;;;4175609;28;20311;-56
2022/03/23 00:47:20;;;;;;;17.03;9.20;;;3.90;70.90;;;;;;4176741;28;20754;-56
2022/03/23 00:49:22;;;;;;;21.80;9.10;;;3.80;70.80;;;;;;4176288;28;20290;-58
2022/03/23 00:51:23;;;;;;;17.47;8.57;;;3.80;70.40;;;;;;4182292;28;20614;-58
2022/03/23 00:53:24;;;;;;;24.30;10.10;;;3.80;71.30;;;;;;4193681;28;20767;-59
2022/03/23 00:55:25;;;;;;;24.23;9.30;;;3.80;71.60;;;;;;4192579;28;20262;-59
2022/03/23 00:57:26;;;;;;;21.03;9.87;;;3.70;71.60;;;;;;4192553;28;20273;-53
2022/03/23 00:59:27;;;;;;;18.63;9.73;;;3.70;71.90;;;;;;4191192;28;20354;-55
2022/03/23 01:01:29;;;;;;;22.70;8.80;;;3.70;71.80;;;;;;4191611;28;20303;-54
2022/03/23 01:03:30;;;;;;;17.67;8.30;;;3.60;71.80;;;;;;4192270;28;20270;-56
2022/03/23 01:05:31;;;;;;;17.07;8.70;;;3.60;71.70;;;;;;4193122;28;20335;-58
2022/03/23 01:07:32;;;;;;;17.00;8.07;;;3.60;72.10;;;;;;4192198;28;20354;-56
2022/03/23 01:09:33;;;;;;;20.33;9.03;;;3.60;72.20;;;;;;4193850;28;20289;-58
2022/03/23 01:11:37;;;;;;;24.00;8.10;;;3.70;72.20;;;;;;4191332;28;20273;-57
2022/03/23 01:13:38;;;;;;;16.50;8.07;;;3.70;72.20;;;;;;4193075;28;20277;-58
2022/03/23 01:15:39;;;;;;;20.93;8.23;;;3.70;71.70;;;;;;4190331;28;20818;-57
2022/03/23 01:17:40;;;;;;;21.17;8.27;;;3.70;72.00;;;;;;4193143;28;20265;-58
2022/03/23 01:19:41;;;;;;;15.77;9.00;;;3.80;72.60;;;;;;4192102;28;20261;-57
2022/03/23 01:21:44;;;;;;;15.27;7.80;;;3.80;72.20;;;;;;4192411;28;20346;-56
2022/03/23 01:23:46;;;;;;;17.80;8.77;;;3.80;72.00;;;;;;4192020;28;20326;-55
2022/03/23 01:25:47;;;;;;;16.10;8.77;;;3.80;72.20;;;;;;4192409;28;20745;-58
2022/03/23 01:27:49;;;;;;;18.20;8.17;;;3.80;72.60;;;;;;4190499;28;20269;-59
2022/03/23 01:29:50;;;;;;;21.43;10.50;;;3.70;72.30;;;;;;4191789;28;20285;-55
2022/03/23 01:31:52;;;;;;;27.60;10.97;;;3.70;72.20;;;;;;4193178;28;20333;-59
2022/03/23 01:33:59;;;;;;;22.87;10.67;;;3.60;72.30;;;;;;4191648;28;20262;-59
2022/03/23 01:36:00;;;;;;;26.13;10.17;;;3.50;72.50;;;;;;4192827;28;20323;-56
2022/03/23 01:38:01;;;;;;;21.57;9.63;;;3.40;73.50;;;;;;4191649;28;20327;-56
2022/03/23 01:40:08;;;;;;;22.20;8.90;;;3.40;74.30;;;;;;4192853;28;20270;-56
2022/03/23 01:42:09;;;;;;;22.70;9.03;;;3.30;73.70;;;;;;4191459;28;20277;-56
2022/03/23 01:44:13;;;;;;;22.80;9.70;;;3.30;74.40;;;;;;4190820;28;20296;-54
2022/03/23 01:46:19;;;;;;;23.93;10.27;;;3.30;73.70;;;;;;4180725;28;20274;-55
2022/03/23 01:48:21;;;;;;;21.03;9.83;;;3.30;74.30;;;;;;4176927;28;20777;-59
2022/03/23 01:50:22;;;;;;;27.50;12.40;;;3.20;74.30;;;;;;4174684;28;20270;-58
2022/03/23 01:52:28;;;;;;;24.97;12.10;;;3.20;74.40;;;;;;4176262;28;20324;-58
2022/03/23 01:54:29;;;;;;;20.30;10.57;;;3.10;74.50;;;;;;4174399;28;20308;-58
2022/03/23 01:56:30;;;;;;;25.83;13.47;;;3.10;75.00;;;;;;4159254;28;20271;-57
2022/03/23 01:58:31;;;;;;;27.70;12.73;;;3.00;74.90;;;;;;4158450;28;20270;-57
2022/03/23 02:00:33;;;;;;;28.90;13.67;;;2.90;75.40;;;;;;4158836;28;20263;-57
2022/03/23 02:02:34;;;;;;;22.07;11.43;;;2.80;75.60;;;;;;4157594;28;20305;-57
2022/03/23 02:04:36;;;;;;;29.97;11.03;;;2.80;75.90;;;;;;4158450;28;20313;-55
2022/03/23 02:06:37;;;;;;;21.60;9.57;;;2.80;76.70;;;;;;4159496;28;20270;-58
2022/03/23 02:08:38;;;;;;;19.67;9.87;;;2.80;76.50;;;;;;4157596;28;20291;-59
2022/03/23 02:10:41;;;;;;;27.00;10.47;;;2.80;76.70;;;;;;4157981;28;20266;-58
2022/03/23 02:12:43;;;;;;;21.77;9.27;;;2.80;76.80;;;;;;4158266;28;20263;-58
2022/03/23 02:14:47;;;;;;;21.93;9.13;;;2.80;77.50;;;;;;4165631;28;20270;-59
2022/03/23 02:16:51;;;;;;;15.07;7.50;;;2.70;77.60;;;;;;4192695;28;20311;-57
2022/03/23 02:18:52;;;;;;;15.83;7.77;;;2.80;77.80;;;;;;4191084;28;20265;-56
2022/03/23 02:20:53;;;;;;;15.00;7.63;;;2.80;77.90;;;;;;4190448;28;21203;-55
2022/03/23 02:22:54;;;;;;;15.43;7.53;;;2.90;78.30;;;;;;4192625;28;20319;-55
2022/03/23 02:24:56;;;;;;;15.63;7.77;;;2.90;78.60;;;;;;4191478;28;20287;-58
2022/03/23 02:26:59;;;;;;;21.27;8.30;;;2.90;78.80;;;;;;4192179;28;20269;-58
2022/03/23 02:29:01;;;;;;;17.70;8.83;;;2.90;78.50;;;;;;4191018;28;20297;-54
2022/03/23 02:31:02;;;;;;;25.53;9.60;;;2.90;78.80;;;;;;4191927;28;20453;-57
2022/03/23 02:33:04;;;;;;;24.80;10.00;;;2.80;78.50;;;;;;4191316;28;20306;-60
2022/03/23 02:35:08;;;;;;;20.70;10.30;;;2.80;78.70;;;;;;4190608;28;20331;-54
2022/03/23 02:37:09;;;;;;;31.33;10.67;;;2.70;79.30;;;;;;4191019;28;20289;-57
2022/03/23 02:39:10;;;;;;;18.40;9.37;;;2.70;79.50;;;;;;4190674;28;20771;-57
2022/03/23 02:41:11;;;;;;;20.63;8.87;;;2.60;79.20;;;;;;4189608;28;20282;-58
2022/03/23 02:43:13;;;;;;;19.87;9.30;;;2.60;79.90;;;;;;4190739;28;20269;-59
2022/03/23 02:45:14;;;;;;;18.17;8.63;;;2.60;79.70;;;;;;4191831;28;20265;-58
2022/03/23 02:47:15;;;;;;;15.87;7.63;;;2.60;80.40;;;;;;4190294;28;20354;-59
2022/03/23 02:49:18;;;;;;;21.87;8.03;;;2.60;80.10;;;;;;4191430;28;20375;-58
2022/03/23 02:51:19;;;;;;;15.00;7.80;;;2.60;81.50;;;;;;4190443;28;20859;-57
2022/03/23 03:03:22;;;;;;;33.10;13.37;;;2.50;80.90;;;;;;4174568;28;20804;-57
2022/03/23 03:05:24;;;;;;;29.37;12.17;;;2.40;81.00;;;;;;4174166;28;20411;-58
2022/03/23 03:07:25;;;;;;;25.03;12.27;;;2.30;81.60;;;;;;4173059;28;20323;-55
2022/03/23 03:09:26;;;;;;;31.93;13.20;;;2.20;81.80;;;;;;4174733;28;20347;-58
2022/03/23 03:11:27;;;;;;;28.17;12.00;;;2.20;81.80;;;;;;4174827;28;20764;-58
2022/03/23 03:13:29;;;;;;;22.23;11.27;;;2.20;83.00;;;;;;4172859;28;20274;-58
2022/03/23 03:15:30;;;;;;;22.90;12.00;;;2.20;83.30;;;;;;4181553;28;20269;-57
2022/03/23 03:17:31;;;;;;;28.53;12.43;;;2.10;83.50;;;;;;4189759;28;20812;-60
2022/03/23 03:19:34;;;;;;;30.30;12.70;;;2.10;83.70;;;;;;4191285;28;20262;-58
2022/03/23 03:21:36;;;;;;;28.50;12.13;;;2.00;84.10;;;;;;4189055;28;20261;-57
2022/03/23 03:23:43;;;;;;;23.47;10.80;;;2.00;84.20;;;;;;4183150;28;20898;-58
2022/03/23 03:25:44;;;;;;;25.47;11.00;;;2.00;84.70;;;;;;4173394;28;20258;-58
2022/03/23 03:27:45;;;;;;;26.33;11.43;;;2.00;84.40;;;;;;4174379;28;20266;-57
2022/03/23 03:29:46;;;;;;;27.10;11.27;;;2.00;85.70;;;;;;4172926;28;20301;-59
2022/03/23 03:31:47;;;;;;;26.57;11.73;;;2.00;85.00;;;;;;4174274;28;20323;-55
2022/03/23 03:33:49;;;;;;;23.87;10.63;;;1.90;85.00;;;;;;4193007;28;20331;-57
2022/03/23 03:35:50;;;;;;;29.20;12.23;;;2.00;85.50;;;;;;4190150;28;20741;-58
2022/03/23 03:37:51;;;;;;;28.23;12.97;;;1.90;85.30;;;;;;4188431;28;20789;-56
2022/03/23 03:39:52;;;;;;;27.77;13.93;;;1.80;86.20;;;;;;4189925;28;20322;-54
2022/03/23 03:41:53;;;;;;;29.57;13.20;;;1.70;86.40;;;;;;4190668;28;20273;-57
2022/03/23 03:43:56;;;;;;;25.23;12.60;;;1.60;87.40;;;;;;4189550;28;20319;-57
2022/03/23 03:45:58;;;;;;;30.13;12.77;;;1.50;87.60;;;;;;4191040;28;20307;-54
2022/03/23 03:47:59;;;;;;;33.23;13.83;;;1.40;88.70;;;;;;4188942;28;20307;-54
2022/03/23 03:50:03;;;;;;;29.60;13.60;;;1.40;88.50;;;;;;4190705;28;20299;-57
2022/03/23 03:52:07;;;;;;;26.97;13.17;;;1.40;90.10;;;;;;4178626;28;20282;-58
2022/03/23 03:54:08;;;;;;;29.03;12.70;;;1.30;89.60;;;;;;4174136;28;20328;-58
2022/03/23 03:56:10;;;;;;;29.80;12.57;;;1.30;90.10;;;;;;4172787;28;20315;-55
2022/03/23 03:58:14;;;;;;;39.87;13.70;;;1.20;90.50;;;;;;4173481;28;20281;-57
2022/03/23 04:00:16;;;;;;;27.87;12.80;;;1.20;90.40;;;;;;4172687;28;20274;-57
2022/03/23 04:02:18;;;;;;;27.90;13.17;;;1.10;90.70;;;;;;4174493;28;20676;-59
2022/03/23 04:04:20;;;;;;;27.77;11.87;;;1.10;91.50;;;;;;4172369;28;20324;-57
2022/03/23 04:06:21;;;;;;;26.87;12.93;;;1.10;91.10;;;;;;4190206;28;20308;-58
2022/03/23 04:08:22;;;;;;;30.20;12.63;;;1.00;91.00;;;;;;4173337;28;20284;-56
2022/03/23 04:10:24;;;;;;;27.73;13.33;;;1.10;91.30;;;;;;4174621;28;20290;-57
2022/03/23 04:12:25;;;;;;;31.17;13.00;;;1.00;91.50;;;;;;4173701;28;20270;-58
2022/03/23 04:14:27;;;;;;;26.40;11.67;;;1.00;91.70;;;;;;4171899;28;20445;-57
2022/03/23 04:16:28;;;;;;;29.00;12.83;;;1.00;91.50;;;;;;4173470;28;20265;-57
2022/03/23 04:18:29;;;;;;;29.27;12.10;;;1.00;91.90;;;;;;4172188;28;20759;-58
2022/03/23 04:20:30;;;;;;;26.33;12.60;;;1.00;92.10;;;;;;4174326;28;20270;-55
2022/03/23 04:22:31;;;;;;;29.13;12.17;;;1.00;92.00;;;;;;4172200;28;20274;-57
2022/03/23 04:24:33;;;;;;;24.70;11.10;;;0.90;92.30;;;;;;4177760;28;20328;-57
2022/03/23 04:26:34;;;;;;;23.37;11.13;;;1.00;92.40;;;;;;4186806;28;20659;-55
2022/03/23 04:28:35;;;;;;;26.73;11.80;;;1.00;92.60;;;;;;4180288;28;20266;-55
2022/03/23 04:30:37;;;;;;;26.83;11.40;;;1.00;92.70;;;;;;4172589;28;20289;-53
2022/03/23 04:32:39;;;;;;;29.00;12.47;;;1.00;93.10;;;;;;4174467;28;20281;-58
2022/03/23 04:34:41;;;;;;;24.03;10.17;;;1.00;92.80;;;;;;4172522;28;20282;-56
2022/03/23 04:36:42;;;;;;;27.87;11.13;;;1.10;92.80;;;;;;4172645;28;20289;-60
2022/03/23 04:38:43;;;;;;;31.40;10.53;;;1.10;92.70;;;;;;4173423;28;20328;-59
2022/03/23 04:40:45;;;;;;;22.83;10.27;;;1.20;92.70;;;;;;4182503;28;20278;-58
2022/03/23 04:42:46;;;;;;;21.33;10.00;;;1.50;92.70;;;;;;4171827;28;20671;-60
2022/03/23 04:44:47;;;;;;;23.40;10.23;;;1.80;92.20;;;;;;4174894;28;20800;-58
2022/03/23 04:46:48;;;;;;;25.63;9.83;;;2.30;91.60;;;;;;4172156;28;20270;-56
2022/03/23 04:48:49;;;;;;;22.07;9.10;;;2.70;91.20;;;;;;4172429;28;20339;-58
2022/03/23 04:50:50;;;;;;;26.53;10.00;;;3.10;91.00;;;;;;4173330;28;20270;-57
2022/03/23 04:52:52;;;;;;;16.47;9.17;;;3.50;90.00;;;;;;4172508;28;20258;-62
2022/03/23 04:54:56;;;;;;;23.37;9.50;;;4.00;88.10;;;;;;4174529;28;20270;-56
2022/03/23 04:56:57;;;;;;;17.00;8.83;;;4.40;86.70;;;;;;4175407;28;20270;-58
2022/03/23 04:58:59;;;;;;;17.70;8.47;;;4.70;85.10;;;;;;4189341;28;20274;-57
2022/03/23 05:01:01;;;;;;;18.40;7.90;;;5.00;83.80;;;;;;4185738;28;20281;-59
2022/03/23 05:03:04;;;;;;;19.07;7.70;;;5.10;83.10;;;;;;4176107;28;20304;-59
2022/03/23 05:05:13;;;;;;;25.53;10.17;;;5.30;82.10;;;;;;4171902;28;20262;-60
2022/03/23 05:07:15;;;;;;;31.70;11.43;;;5.50;81.50;;;;;;4174901;28;20351;-59
2022/03/23 05:09:16;;;;;;;28.30;11.83;;;5.60;81.70;;;;;;4172142;28;20343;-60
2022/03/23 05:11:17;;;;;;;24.93;11.77;;;6.20;81.20;;;;;;4173155;28;20270;-61
2022/03/23 05:13:18;;;;;;;23.57;9.40;;;6.70;79.60;;;;;;4172213;28;20266;-59
2022/03/23 05:15:19;;;;;;;26.50;11.90;;;7.00;77.10;;;;;;4172757;28;20266;-61
2022/03/23 05:17:21;;;;;;;32.87;13.93;;;7.30;76.50;;;;;;4171966;28;20274;-60
2022/03/23 05:19:22;;;;;;;31.80;14.67;;;7.60;75.30;;;;;;4182816;28;20040;-63
2022/03/23 05:21:23;;;;;;;32.83;16.40;;;8.00;74.20;;;;;;4187489;28;20431;-60
2022/03/23 05:23:24;;;;;;;31.30;15.00;;;8.30;72.70;;;;;;4186264;28;20032;-61
2022/03/23 05:25:26;;;;;;;33.93;13.83;;;8.70;72.40;;;;;;4173099;28;20083;-60
2022/03/23 05:27:27;;;;;;;28.60;14.23;;;9.20;71.50;;;;;;4182549;28;20024;-64
2022/03/23 05:29:28;;;;;;;29.07;13.03;;;9.40;69.70;;;;;;4188611;28;20060;-61
2022/03/23 05:31:29;;;;;;;30.50;13.63;;;9.60;69.30;;;;;;4182099;28;20055;-59
2022/03/23 05:33:30;;;;;;;34.33;14.67;;;9.60;68.20;;;;;;4176269;28;20053;-59
2022/03/23 05:35:32;;;;;;;31.07;15.13;;;9.40;68.90;;;;;;4174374;28;20032;-56
2022/03/23 05:37:34;;;;;;;27.73;13.37;;;9.90;68.80;;;;;;4175224;28;20059;-58
2022/03/23 05:39:35;;;;;;;33.33;14.33;;;10.10;67.40;;;;;;4174551;28;20059;-58
2022/03/23 05:41:37;;;;;;;23.70;12.63;;;10.20;67.60;;;;;;4175518;28;20029;-58
2022/03/23 05:43:38;;;;;;;38.63;19.40;;;10.60;66.80;;;;;;4174619;28;20029;-56
2022/03/23 05:45:39;;;;;;;31.27;11.80;;;11.00;66.20;;;;;;4178128;28;20492;-60
2022/03/23 05:47:40;;;;;;;21.70;10.07;;;11.50;65.10;;;;;;4174545;28;20029;-59
2022/03/23 05:49:42;;;;;;;19.33;8.57;;;12.10;64.50;;;;;;4174426;28;20041;-59
2022/03/23 05:51:43;;;;;;;20.40;8.40;;;12.60;63.00;;;;;;4175897;28;20036;-58
2022/03/23 05:53:44;;;;;;;15.77;8.23;;;13.10;62.10;;;;;;4174424;28;20094;-57
2022/03/23 05:55:45;;;;;;;18.13;7.73;;;13.20;61.20;;;;;;4162562;28;20029;-59
2022/03/23 05:57:46;;;;;;;19.17;7.73;;;13.60;60.80;;;;;;4183890;28;20451;-59
2022/03/23 05:59:47;;;;;;;19.63;6.93;;;13.70;59.30;;;;;;4175002;28;20041;-60
2022/03/23 06:01:48;;;;;;;13.57;7.40;;;13.80;59.20;;;;;;4174061;28;20040;-59
2022/03/23 06:03:50;;;;;;;15.30;6.93;;;14.20;58.80;;;;;;4175660;28;20037;-64
2022/03/23 06:05:51;;;;;;;13.30;7.00;;;14.70;57.40;;;;;;4173642;28;20477;-58
2022/03/23 06:07:53;;;;;;;16.27;7.27;;;15.00;56.60;;;;;;4174026;28;20037;-60
2022/03/23 06:09:54;;;;;;;14.60;6.93;;;15.30;55.70;;;;;;4173146;28;20114;-59
2022/03/23 06:11:57;;;;;;;15.10;7.17;;;15.40;54.70;;;;;;4174330;28;20041;-58
2022/03/23 06:13:58;;;;;;;12.70;6.60;;;15.20;54.50;;;;;;4187708;28;20083;-56
2022/03/23 06:15:59;;;;;;;14.37;6.90;;;15.30;54.50;;;;;;4191271;28;20040;-60
2022/03/23 06:18:00;;;;;;;15.80;5.90;;;15.40;53.80;;;;;;4190868;28;20093;-59
2022/03/23 06:20:03;;;;;;;17.43;6.97;;;15.40;53.50;;;;;;4190915;28;20040;-55
2022/03/23 06:22:05;;;;;;;13.67;6.07;;;15.20;53.10;;;;;;4190668;28;20094;-60
2022/03/23 06:24:06;;;;;;;14.97;6.03;;;15.60;53.10;;;;;;4190790;28;20041;-58
2022/03/23 06:26:08;;;;;;;11.63;6.97;;;15.90;52.40;;;;;;4191287;28;20433;-59
2022/03/23 06:28:09;;;;;;;37.53;19.03;;;16.20;52.00;;;;;;4190080;28;20048;-58
2022/03/23 06:30:11;;;;;;;29.83;13.87;;;16.40;51.70;;;;;;4191577;28;20550;-59
2022/03/23 06:32:12;;;;;;;20.00;9.93;;;16.40;51.30;;;;;;4190220;28;20036;-58
2022/03/23 06:34:14;;;;;;;40.13;18.23;;;16.30;50.80;;;;;;4191509;28;20094;-59
2022/03/23 06:36:15;;;;;;;25.23;12.53;;;16.30;50.60;;;;;;4189824;28;20089;-57
2022/03/23 06:38:17;;;;;;;24.07;11.07;;;16.60;50.80;;;;;;4191001;28;20455;-63
2022/03/23 06:40:19;;;;;;;21.57;8.87;;;16.50;50.30;;;;;;4189952;28;20049;-57
2022/03/23 06:42:20;;;;;;;14.40;7.67;;;16.50;50.20;;;;;;4190206;28;20029;-59
2022/03/23 06:44:21;;;;;;;22.70;8.13;;;16.30;50.20;;;;;;4189302;28;20496;-59
2022/03/23 06:46:23;;;;;;;19.83;7.83;;;16.10;50.10;;;;;;4190766;28;20037;-60
2022/03/23 06:48:24;;;;;;;20.97;8.57;;;15.90;50.30;;;;;;4190134;28;20452;-60
2022/03/23 06:50:26;;;;;;;17.03;8.20;;;15.80;50.20;;;;;;4190333;28;21020;-58
2022/03/23 06:52:27;;;;;;;16.20;8.37;;;15.60;50.60;;;;;;4190786;28;20058;-59
2022/03/23 06:54:28;;;;;;;22.40;9.63;;;15.70;50.60;;;;;;4190915;28;20040;-59
2022/03/23 06:56:29;;;;;;;17.73;9.07;;;15.70;50.90;;;;;;4190635;28;20054;-62
2022/03/23 06:58:30;;;;;;;18.10;8.93;;;15.70;50.60;;;;;;4189556;28;20048;-59
2022/03/23 07:00:31;;;;;;;19.27;8.57;;;15.50;50.80;;;;;;4191010;28;20029;-58
2022/03/23 07:02:32;;;;;;;19.83;7.23;;;15.40;50.90;;;;;;4189931;28;20032;-61
2022/03/23 07:04:34;;;;;;;16.80;6.77;;;15.50;50.80;;;;;;4190835;28;20485;-59
2022/03/23 07:06:35;;;;;;;16.53;7.50;;;15.30;50.80;;;;;;4189679;28;20047;-57
2022/03/23 07:10:56;;;;;;;20.85;7.05;;;14.80;51.30;;;;;;4189602;28;20097;-60
2022/03/23 07:12:58;;;;;;;21.20;7.97;;;14.80;51.60;;;;;;4190867;28;20036;-58
2022/03/23 07:14:59;;;;;;;16.73;7.57;;;15.10;51.30;;;;;;4189309;28;20098;-57
2022/03/23 07:17:01;;;;;;;21.07;8.67;;;15.20;51.00;;;;;;4190895;28;20101;-59
2022/03/23 07:19:04;;;;;;;17.07;7.43;;;15.20;51.20;;;;;;4190098;28;20094;-59
2022/03/23 07:21:05;;;;;;;18.93;7.57;;;15.60;50.90;;;;;;4189943;28;20778;-59
2022/03/23 07:23:07;;;;;;;21.27;7.23;;;15.80;50.50;;;;;;4189683;28;20408;-58
2022/03/23 07:25:08;;;;;;;17.80;7.53;;;16.10;50.40;;;;;;4190484;28;20037;-58
2022/03/23 07:27:09;;;;;;;24.77;7.73;;;16.10;50.00;;;;;;4190081;28;20087;-59
2022/03/23 07:29:11;;;;;;;15.80;8.10;;;16.20;49.90;;;;;;4189458;28;20090;-57
2022/03/23 07:31:13;;;;;;;16.60;8.70;;;16.40;49.70;;;;;;4190898;28;20044;-63
2022/03/23 07:33:14;;;;;;;18.73;8.20;;;16.50;49.50;;;;;;4188633;28;20041;-58
2022/03/23 07:35:15;;;;;;;17.10;7.70;;;16.70;49.40;;;;;;4190412;28;20032;-59
2022/03/23 07:37:16;;;;;;;14.53;7.43;;;16.90;49.10;;;;;;4189112;28;20459;-58
2022/03/23 07:39:21;;;;;;;21.03;7.67;;;16.90;49.00;;;;;;4190437;28;20052;-59
2022/03/23 07:41:22;;;;;;;13.73;7.00;;;16.70;49.20;;;;;;4189132;28;20037;-60
2022/03/23 07:43:23;;;;;;;18.13;8.07;;;16.70;49.40;;;;;;4190285;28;20032;-57
2022/03/23 07:45:24;;;;;;;15.10;6.93;;;16.80;49.30;;;;;;4189375;28;20055;-58
2022/03/23 07:47:26;;;;;;;19.60;7.27;;;16.70;49.20;;;;;;4190787;28;20036;-59
2022/03/23 07:49:27;;;;;;;21.70;9.20;;;16.90;49.20;;;;;;4189264;28;20028;-59
2022/03/23 07:51:28;;;;;;;18.48;7.55;;;17.20;49.10;;;;;;4189925;28;20104;-60
2022/03/23 07:53:29;;;;;;;21.40;8.25;;;17.40;48.70;;;;;;4189016;28;20041;-61
2022/03/23 07:55:30;;;;;;;15.75;6.97;;;17.30;48.70;;;;;;4190231;28;20157;-60
2022/03/23 07:57:32;;;;;;;14.23;6.75;;;17.30;48.50;;;;;;4189422;28;20118;-59
2022/03/23 07:59:34;;;;;;;13.38;7.22;;;17.20;48.50;;;;;;4189588;28;20033;-59
2022/03/23 08:01:35;;;;;;;16.85;6.68;;;17.20;48.40;;;;;;4189788;28;20451;-60
2022/03/23 08:03:36;;;;;;;23.83;7.97;;;17.10;48.60;;;;;;4188965;28;20423;-59
2022/03/23 08:05:44;;;;;;;16.17;6.68;;;17.50;48.40;;;;;;4190341;28;20041;-59
2022/03/23 08:07:45;;;;;;;10.48;5.00;;;18.00;48.30;;;;;;4189151;28;20425;-60
2022/03/23 08:09:46;;;;;;;6.68;4.25;;;18.10;46.90;;;;;;4190676;28;20036;-58
2022/03/23 08:11:47;;;;;;;17.77;4.65;;;18.20;46.10;;;;;;4188743;28;20445;-59
2022/03/23 08:13:49;;;;;;;11.05;4.57;;;18.10;45.70;;;;;;4190103;28;20113;-60
2022/03/23 08:15:50;;;;;;;8.93;3.95;;;17.70;45.60;;;;;;4189115;28;20412;-59
2022/03/23 08:17:51;;;;;;;12.13;4.85;;;17.50;45.60;;;;;;4190103;28;20473;-59
2022/03/23 08:22:12;;;;;;;12.55;5.00;;;16.80;46.00;;;;;;4190260;28;20891;-58
2022/03/23 08:24:13;;;;;;;15.00;5.90;;;17.00;46.40;;;;;;4188689;28;20036;-59
2022/03/23 08:26:15;;;;;;;18.50;5.85;;;17.10;46.20;;;;;;4190756;28;20063;-59
2022/03/23 08:28:17;;;;;;;9.30;5.03;;;16.90;46.00;;;;;;4189020;28;20066;-59
2022/03/23 08:30:18;;;;;;;9.52;4.53;;;16.80;46.20;;;;;;4189892;28;20058;-58
2022/03/23 08:32:22;;;;;;;15.98;5.22;;;16.90;46.30;;;;;;4189319;28;20044;-60
2022/03/23 08:34:23;;;;;;;20.13;5.35;;;16.70;46.20;;;;;;4189985;28;20086;-60
2022/03/23 08:36:25;;;;;;;10.02;4.47;;;16.70;46.40;;;;;;4189127;28;20082;-59
2022/03/23 08:38:26;;;;;;;16.23;4.65;;;16.80;46.40;;;;;;4189263;28;20041;-63
2022/03/23 08:40:28;;;;;;;18.83;5.15;;;16.90;46.10;;;;;;4189612;28;20094;-59
2022/03/23 08:42:29;;;;;;;12.82;4.97;;;17.00;46.40;;;;;;4188396;28;20052;-60
2022/03/23 08:44:30;;;;;;;8.80;4.50;;;17.20;46.20;;;;;;4190338;28;20448;-61
2022/03/23 08:46:31;;;;;;;21.70;10.80;;;17.40;46.00;;;;;;4188797;28;20044;-59
2022/03/23 08:48:32;;;;;;;17.27;5.10;;;17.10;45.90;;;;;;4190336;28;20020;-60
2022/03/23 08:50:34;;;;;;;20.73;6.22;;;17.20;46.00;;;;;;4188016;28;20048;-57
2022/03/23 08:52:36;;;;;;;18.23;5.72;;;17.00;46.00;;;;;;4189461;28;20053;-58
2022/03/23 08:54:38;;;;;;;16.45;4.75;;;17.20;46.00;;;;;;4189013;28;20053;-58
2022/03/23 08:56:39;;;;;;;12.65;5.18;;;17.20;45.90;;;;;;4189729;28;20036;-59
2022/03/23 08:58:47;;;;;;;10.82;4.28;;;17.20;45.80;;;;;;4188616;28;20536;-58
2022/03/23 09:00:48;;;;;;;9.50;5.53;;;17.30;45.60;;;;;;4189826;28;20045;-59
2022/03/23 09:02:50;;;;;;;15.10;4.57;;;17.50;45.70;;;;;;4188010;28;20502;-58
2022/03/23 09:04:51;;;;;;;11.65;5.38;;;17.60;45.10;;;;;;4190203;28;20495;-58
2022/03/23 09:06:52;;;;;;;8.82;4.88;;;17.50;45.10;;;;;;4192004;28;20033;-58
2022/03/23 09:08:54;;;;;;;16.90;5.85;;;17.50;45.30;;;;;;4192159;28;20082;-62
2022/03/23 09:10:55;;;;;;;13.20;4.97;;;17.70;45.60;;;;;;4192128;28;20666;-60
2022/03/23 09:12:56;;;;;;;11.70;4.43;;;17.90;45.40;;;;;;4191746;28;20029;-58
2022/03/23 09:14:57;;;;;;;12.48;5.10;;;17.90;45.00;;;;;;4192371;28;20174;-57
2022/03/23 09:16:59;;;;;;;12.18;4.72;;;17.80;44.60;;;;;;4191636;28;20033;-60
2022/03/23 09:19:02;;;;;;;14.85;4.28;;;17.70;44.20;;;;;;4192446;28;20021;-58
2022/03/23 09:21:03;;;;;;;10.27;5.25;;;17.70;44.30;;;;;;4191454;28;20097;-59
2022/03/23 09:23:04;;;;;;;13.57;4.70;;;17.80;44.20;;;;;;4192026;28;20032;-55
2022/03/23 09:25:09;;;;;;;16.63;5.00;;;17.90;44.00;;;;;;4192043;28;20086;-59
2022/03/23 09:27:10;;;;;;;13.55;4.68;;;18.10;43.90;;;;;;4193010;28;20085;-60
2022/03/23 09:29:12;;;;;;;23.27;5.38;;;18.20;43.60;;;;;;4191227;28;20082;-59
2022/03/23 09:31:13;;;;;;;12.25;5.50;;;18.20;43.60;;;;;;4191624;28;20056;-59
2022/03/23 09:33:15;;;;;;;19.13;4.65;;;17.70;43.20;;;;;;4190884;28;20151;-59
2022/03/23 09:35:17;;;;;;;15.18;5.03;;;17.50;43.70;;;;;;4192293;28;20105;-59
2022/03/23 09:39:38;;;;;;;15.13;5.22;;;17.50;43.90;;;;;;4192987;28;20066;-58
2022/03/23 09:41:40;;;;;;;15.52;4.93;;;17.30;43.50;;;;;;4191556;28;20042;-58
2022/03/23 09:43:43;;;;;;;11.60;4.50;;;16.90;43.50;;;;;;4191405;28;20899;-60
2022/03/23 09:45:48;;;;;;;12.93;4.63;;;16.80;43.80;;;;;;4191317;28;20041;-59
2022/03/23 09:47:49;;;;;;;10.57;4.68;;;16.90;43.70;;;;;;4191797;28;20036;-59
2022/03/23 09:49:50;;;;;;;23.48;5.43;;;17.00;43.60;;;;;;4191410;28;20101;-60
2022/03/23 09:51:53;;;;;;;12.88;5.00;;;17.30;43.90;;;;;;4191232;28;20427;-58
2022/03/23 09:53:55;;;;;;;11.18;4.40;;;17.30;43.40;;;;;;4191181;28;20146;-60
2022/03/23 09:55:56;;;;;;;16.95;4.90;;;17.00;43.30;;;;;;4191073;28;20446;-59
2022/03/23 09:57:59;;;;;;;12.75;4.50;;;16.70;43.30;;;;;;4191798;28;20443;-61
2022/03/23 10:00:00;;;;;;;13.32;4.32;;;16.60;43.20;;;;;;4190085;28;20036;-59
2022/03/23 10:02:01;;;;;;;8.20;3.88;;;16.40;43.00;;;;;;4192055;28;20094;-60
2022/03/23 10:04:23;;;;;;;10.20;4.88;;;16.60;43.10;;;;;;4191204;28;20037;-57
2022/03/23 10:06:33;;;;;;;9.23;3.97;;;16.80;43.00;;;;;;4191524;28;20052;-59
2022/03/23 10:09:06;;;;;;;10.15;3.70;;;17.10;42.60;;;;;;4191139;28;20024;-60
2022/03/23 10:11:44;;;;;;;9.20;3.85;;;17.00;41.90;;;;;;4191707;28;20048;-60
2022/03/23 10:14:19;;;;;;;8.90;4.07;;;16.70;41.90;;;;;;4190267;28;20036;-59
2022/03/23 10:16:52;;;;;;;9.45;3.83;;;16.60;42.00;;;;;;4189790;28;20617;-59
2022/03/23 10:18:59;;;;;;;10.27;4.18;;;16.50;42.30;;;;;;4191294;28;20028;-58
2022/03/23 10:21:01;;;;;;;14.88;4.18;;;16.70;42.10;;;;;;4190383;28;20061;-61
2022/03/23 10:23:06;;;;;;;14.38;5.07;;;16.60;42.00;;;;;;4191924;28;20025;-58
2022/03/23 10:25:10;;;;;;;7.75;3.42;;;16.50;42.00;;;;;;4190528;28;20048;-57
2022/03/23 10:27:17;;;;;;;6.95;4.13;;;16.60;42.30;;;;;;4191205;28;20032;-57
2022/03/23 10:29:20;;;;;;;9.02;3.30;;;16.70;42.10;;;;;;4190251;28;20117;-57
2022/03/23 10:31:26;;;;;;;12.13;3.50;;;16.70;41.80;;;;;;4191214;28;20484;-58
2022/03/23 10:33:27;;;;;;;7.72;3.40;;;16.80;41.60;;;;;;4190377;28;20037;-57
2022/03/23 10:35:37;;;;;;;10.13;3.42;;;16.70;41.20;;;;;;4190767;28;20449;-58
2022/03/23 10:37:39;;;;;;;6.93;3.53;;;16.80;41.50;;;;;;4190217;28;20045;-59
2022/03/23 10:39:41;;;;;;;7.18;3.45;;;16.90;41.50;;;;;;4191086;28;20078;-59
2022/03/23 10:41:42;;;;;;;12.20;4.15;;;17.10;41.70;;;;;;4191153;28;20090;-59
2022/03/23 10:43:43;;;;;;;9.38;3.75;;;17.30;41.70;;;;;;4190071;28;20353;-61
2022/03/23 10:45:44;;;;;;;6.68;3.80;;;17.40;41.50;;;;;;4191180;28;20118;-58